sensor_id;sensor_type;location;lat;lon;timestamp;pressure;altitude;pressure_sealevel;temperature;humidity
59055;BME280;44845;51.444;7.460;2023-02-10T00:01:27;101607.72;;;4.35;70.99
59055;BME280;44845;51.444;7.460;2023-02-10T00:03:56;101609.53;;;4.36;70.92
59055;BME280;44845;51.444;7.460;2023-02-10T00:06:22;101624.97;;;4.33;70.72
59055;BME280;44845;51.444;7.460;2023-02-10T00:08:53;101614.50;;;4.32;70.77
59055;BME280;44845;51.444;7.460;2023-02-10T00:11:19;101616.25;;;4.33;70.81
59055;BME280;44845;51.444;7.460;2023-02-10T00:13:45;101617.16;;;4.33;70.74
59055;BME280;44845;51.444;7.460;2023-02-10T00:16:13;101616.16;;;4.30;70.84
59055;BME280;44845;51.444;7.460;2023-02-10T00:18:39;101630.03;;;4.30;70.85
59055;BME280;44845;51.444;7.460;2023-02-10T00:21:16;101626.59;;;4.31;70.79
59055;BME280;44845;51.444;7.460;2023-02-10T00:23:42;101624.84;;;4.30;70.85
59055;BME280;44845;51.444;7.460;2023-02-10T00:26:11;101623.25;;;4.34;70.86
59055;BME280;44845;51.444;7.460;2023-02-10T00:28:36;101630.16;;;4.33;70.81
59055;BME280;44845;51.444;7.460;2023-02-10T00:31:06;101624.97;;;4.33;70.91
59055;BME280;44845;51.444;7.460;2023-02-10T00:33:32;101616.34;;;4.34;70.93
59055;BME280;44845;51.444;7.460;2023-02-10T00:35:57;101629.34;;;4.34;70.54
59055;BME280;44845;51.444;7.460;2023-02-10T00:38:22;101623.19;;;4.32;70.92
59055;BME280;44845;51.444;7.460;2023-02-10T00:40:48;101621.41;;;4.31;71.11
59055;BME280;44845;51.444;7.460;2023-02-10T00:43:13;101618.13;;;4.35;71.15
59055;BME280;44845;51.444;7.460;2023-02-10T00:45:38;101609.53;;;4.36;71.23
59055;BME280;44845;51.444;7.460;2023-02-10T00:48:04;101610.41;;;4.37;71.04
59055;BME280;44845;51.444;7.460;2023-02-10T00:50:29;101611.31;;;4.37;71.12
59055;BME280;44845;51.444;7.460;2023-02-10T00:52:55;101614.72;;;4.36;71.23
59055;BME280;44845;51.444;7.460;2023-02-10T00:55:20;101606.13;;;4.37;71.12
59055;BME280;44845;51.444;7.460;2023-02-10T00:57:45;101614.88;;;4.39;71.30
59055;BME280;44845;51.444;7.460;2023-02-10T01:00:11;101614.94;;;4.41;71.23
59055;BME280;44845;51.444;7.460;2023-02-10T01:02:36;101614.56;;;4.33;71.40
59055;BME280;44845;51.444;7.460;2023-02-10T01:05:02;101621.63;;;4.36;71.36
59055;BME280;44845;51.444;7.460;2023-02-10T01:07:28;101619.91;;;4.36;71.37
59055;BME280;44845;51.444;7.460;2023-02-10T01:09:54;101616.50;;;4.37;71.58
59055;BME280;44845;51.444;7.460;2023-02-10T01:12:20;101623.19;;;4.32;71.44
59055;BME280;44845;51.444;7.460;2023-02-10T01:14:45;101630.47;;;4.39;71.40
59055;BME280;44845;51.444;7.460;2023-02-10T01:17:10;101632.22;;;4.41;71.66
59055;BME280;44845;51.444;7.460;2023-02-10T01:19:36;101623.47;;;4.38;71.41
59055;BME280;44845;51.444;7.460;2023-02-10T01:22:04;101626.75;;;4.34;71.70
59055;BME280;44845;51.444;7.460;2023-02-10T01:24:29;101628.50;;;4.35;72.10
59055;BME280;44845;51.444;7.460;2023-02-10T01:26:54;101633.72;;;4.35;71.91
59055;BME280;44845;51.444;7.460;2023-02-10T01:29:20;101639.06;;;4.38;71.71
59055;BME280;44845;51.444;7.460;2023-02-10T01:31:45;101642.50;;;4.37;71.68
59055;BME280;44845;51.444;7.460;2023-02-10T01:34:10;101643.28;;;4.36;71.84
59055;BME280;44845;51.444;7.460;2023-02-10T01:36:37;101645.00;;;4.36;71.84
59055;BME280;44845;51.444;7.460;2023-02-10T01:39:02;101644.09;;;4.35;71.94
59055;BME280;44845;51.444;7.460;2023-02-10T01:41:27;101643.28;;;4.36;72.01
59055;BME280;44845;51.444;7.460;2023-02-10T01:43:57;101647.69;;;4.37;71.97
59055;BME280;44845;51.444;7.460;2023-02-10T01:46:23;101639.06;;;4.38;72.26
59055;BME280;44845;51.444;7.460;2023-02-10T01:48:50;101642.50;;;4.37;71.67
59055;BME280;44845;51.444;7.460;2023-02-10T01:51:19;101650.34;;;4.39;71.85
59055;BME280;44845;51.444;7.460;2023-02-10T01:53:44;101650.94;;;4.33;72.23
59055;BME280;44845;51.444;7.460;2023-02-10T01:56:10;101645.00;;;4.36;72.17
59055;BME280;44845;51.444;7.460;2023-02-10T01:58:38;101650.94;;;4.33;72.17
59055;BME280;44845;51.444;7.460;2023-02-10T02:01:06;101664.66;;;4.31;72.30
59055;BME280;44845;51.444;7.460;2023-02-10T02:03:32;101659.56;;;4.32;72.31
59055;BME280;44845;51.444;7.460;2023-02-10T02:05:58;101667.16;;;4.27;72.15
59055;BME280;44845;51.444;7.460;2023-02-10T02:08:25;101659.25;;;4.26;72.30
59055;BME280;44845;51.444;7.460;2023-02-10T02:13:32;101656.50;;;4.23;72.41
59055;BME280;44845;51.444;7.460;2023-02-10T02:27:20;101664.44;;;4.26;73.13
59055;BME280;44845;51.444;7.460;2023-02-10T02:30:50;101662.53;;;4.22;73.18
59055;BME280;44845;51.444;7.460;2023-02-10T02:32:53;101668.69;;;4.24;73.43
59055;BME280;44845;51.444;7.460;2023-02-10T02:35:24;101661.06;;;4.27;73.17
59055;BME280;44845;51.444;7.460;2023-02-10T02:37:51;101672.25;;;4.26;73.02
59055;BME280;44845;51.444;7.460;2023-02-10T02:40:18;101673.81;;;4.22;73.42
59055;BME280;44845;51.444;7.460;2023-02-10T02:42:43;101674.09;;;4.28;72.85
59055;BME280;44845;51.444;7.460;2023-02-10T02:45:16;101671.59;;;4.30;72.99
59055;BME280;44845;51.444;7.460;2023-02-10T02:53:21;101683.31;;;4.22;73.18
59055;BME280;44845;51.444;7.460;2023-02-10T03:01:18;101683.16;;;4.19;72.77
59055;BME280;44845;51.444;7.460;2023-02-10T03:03:51;101683.91;;;4.16;73.22
59055;BME280;44845;51.444;7.460;2023-02-10T03:06:16;101690.72;;;4.14;73.34
59055;BME280;44845;51.444;7.460;2023-02-10T03:08:42;101681.97;;;4.12;73.36
59055;BME280;44845;51.444;7.460;2023-02-10T03:11:07;101677.53;;;4.09;73.28
59055;BME280;44845;51.444;7.460;2023-02-10T03:13:33;101687.16;;;4.12;73.56
59055;BME280;44845;51.444;7.460;2023-02-10T03:15:59;101673.00;;;4.05;73.14
59055;BME280;44845;51.444;7.460;2023-02-10T03:18:25;101674.50;;;4.00;73.30
59055;BME280;44845;51.444;7.460;2023-02-10T03:20:50;101672.91;;;4.03;73.02
59055;BME280;44845;51.444;7.460;2023-02-10T03:23:16;101676.19;;;3.99;72.98
59055;BME280;44845;51.444;7.460;2023-02-10T03:25:44;101665.75;;;3.98;72.96
59055;BME280;44845;51.444;7.460;2023-02-10T03:28:10;101665.28;;;3.88;73.21
59055;BME280;44845;51.444;7.460;2023-02-10T03:30:37;101660.91;;;3.87;73.11
59055;BME280;44845;51.444;7.460;2023-02-10T03:33:03;101654.81;;;3.87;73.16
59055;BME280;44845;51.444;7.460;2023-02-10T03:35:28;101652.97;;;3.84;73.22
59055;BME280;44845;51.444;7.460;2023-02-10T03:37:54;101657.19;;;3.82;73.27
59055;BME280;44845;51.444;7.460;2023-02-10T03:40:19;101645.78;;;3.78;73.28
59055;BME280;44845;51.444;7.460;2023-02-10T03:42:44;101652.13;;;3.67;73.71
59055;BME280;44845;51.444;7.460;2023-02-10T03:45:10;101659.34;;;3.72;73.32
59055;BME280;44845;51.444;7.460;2023-02-10T03:47:35;101657.53;;;3.71;73.39
59055;BME280;44845;51.444;7.460;2023-02-10T03:50:00;101651.38;;;3.69;73.81
59055;BME280;44845;51.444;7.460;2023-02-10T03:52:26;101647.84;;;3.67;73.50
59055;BME280;44845;51.444;7.460;2023-02-10T03:54:51;101649.41;;;3.64;73.57
59055;BME280;44845;51.444;7.460;2023-02-10T03:57:17;101650.13;;;3.61;73.19
59055;BME280;44845;51.444;7.460;2023-02-10T03:59:43;101652.56;;;3.58;73.42
59055;BME280;44845;51.444;7.460;2023-02-10T04:02:09;101659.38;;;3.56;73.17
59055;BME280;44845;51.444;7.460;2023-02-10T04:04:34;101655.84;;;3.54;73.50
59055;BME280;44845;51.444;7.460;2023-02-10T04:07:01;101659.06;;;3.49;73.37
59055;BME280;44845;51.444;7.460;2023-02-10T04:09:27;101663.13;;;3.44;73.39
59055;BME280;44845;51.444;7.460;2023-02-10T04:11:53;101670.09;;;3.45;73.68
59055;BME280;44845;51.444;7.460;2023-02-10T04:14:18;101668.75;;;3.35;73.47
59055;BME280;44845;51.444;7.460;2023-02-10T04:16:44;101669.72;;;3.37;73.58
59055;BME280;44845;51.444;7.460;2023-02-10T04:19:09;101670.44;;;3.35;73.30
59055;BME280;44845;51.444;7.460;2023-02-10T04:21:34;101665.84;;;3.29;73.36
59055;BME280;44845;51.444;7.460;2023-02-10T04:24:00;101668.28;;;3.26;73.30
59055;BME280;44845;51.444;7.460;2023-02-10T04:26:28;101665.50;;;3.23;73.83
59055;BME280;44845;51.444;7.460;2023-02-10T04:28:53;101670.81;;;3.24;73.72
59055;BME280;44845;51.444;7.460;2023-02-10T04:31:19;101676.56;;;3.19;73.89
59055;BME280;44845;51.444;7.460;2023-02-10T04:33:46;101684.50;;;3.22;73.92
59055;BME280;44845;51.444;7.460;2023-02-10T04:36:12;101681.63;;;3.17;73.68
59055;BME280;44845;51.444;7.460;2023-02-10T04:38:37;101684.34;;;3.19;73.67
59055;BME280;44845;51.444;7.460;2023-02-10T04:41:03;101684.88;;;3.13;73.51
59055;BME280;44845;51.444;7.460;2023-02-10T04:43:30;101676.06;;;3.09;73.44
59055;BME280;44845;51.444;7.460;2023-02-10T04:45:55;101668.13;;;3.06;73.52
59055;BME280;44845;51.444;7.460;2023-02-10T04:48:20;101668.84;;;3.03;73.75
59055;BME280;44845;51.444;7.460;2023-02-10T04:50:46;101670.47;;;3.01;73.54
59055;BME280;44845;51.444;7.460;2023-02-10T04:53:12;101668.53;;;2.97;73.73
59055;BME280;44845;51.444;7.460;2023-02-10T04:55:37;101668.53;;;2.97;73.69
59055;BME280;44845;51.444;7.460;2023-02-10T04:58:02;101678.97;;;2.99;73.80
59055;BME280;44845;51.444;7.460;2023-02-10T05:00:28;101677.19;;;2.98;73.89
59055;BME280;44845;51.444;7.460;2023-02-10T05:02:53;101668.69;;;3.00;74.25
59055;BME280;44845;51.444;7.460;2023-02-10T05:05:19;101672.09;;;2.99;74.49
59055;BME280;44845;51.444;7.460;2023-02-10T05:07:44;101666.25;;;3.03;74.33
59055;BME280;44845;51.444;7.460;2023-02-10T05:10:10;101674.94;;;3.04;74.47
59055;BME280;44845;51.444;7.460;2023-02-10T05:12:36;101666.19;;;3.02;74.42
59055;BME280;44845;51.444;7.460;2023-02-10T05:15:01;101668.84;;;3.03;74.20
59055;BME280;44845;51.444;7.460;2023-02-10T05:17:26;101680.84;;;3.01;74.42
59055;BME280;44845;51.444;7.460;2023-02-10T05:19:52;101677.44;;;3.02;74.41
59055;BME280;44845;51.444;7.460;2023-02-10T05:22:17;101680.13;;;3.04;74.20
59055;BME280;44845;51.444;7.460;2023-02-10T05:24:42;101684.25;;;3.00;74.04
59055;BME280;44845;51.444;7.460;2023-02-10T05:27:08;101683.44;;;3.01;74.05
59055;BME280;44845;51.444;7.460;2023-02-10T05:29:33;101687.66;;;2.99;73.96
59055;BME280;44845;51.444;7.460;2023-02-10T05:31:59;101685.97;;;3.00;74.41
59055;BME280;44845;51.444;7.460;2023-02-10T05:34:24;101685.88;;;2.98;74.39
59055;BME280;44845;51.444;7.460;2023-02-10T05:36:51;101691.88;;;2.97;74.51
59055;BME280;44845;51.444;7.460;2023-02-10T05:39:17;101703.28;;;3.01;74.44
59055;BME280;44845;51.444;7.460;2023-02-10T05:41:52;101711.00;;;2.99;74.42
59055;BME280;44845;51.444;7.460;2023-02-10T05:44:18;101706.59;;;2.98;74.63
59055;BME280;44845;51.444;7.460;2023-02-10T05:46:43;101713.25;;;2.93;74.37
59055;BME280;44845;51.444;7.460;2023-02-10T05:49:09;101716.31;;;3.02;74.52
59055;BME280;44845;51.444;7.460;2023-02-10T05:51:34;101711.13;;;3.02;74.46
59055;BME280;44845;51.444;7.460;2023-02-10T05:54:00;101715.53;;;3.03;74.33
59055;BME280;44845;51.444;7.460;2023-02-10T05:56:25;101720.53;;;3.00;74.26
59055;BME280;44845;51.444;7.460;2023-02-10T05:58:50;101716.06;;;2.98;74.28
59055;BME280;44845;51.444;7.460;2023-02-10T06:01:16;101719.56;;;2.98;74.15
59055;BME280;44845;51.444;7.460;2023-02-10T06:03:41;101723.94;;;2.99;74.03
59055;BME280;44845;51.444;7.460;2023-02-10T06:06:07;101723.94;;;2.99;74.04
59055;BME280;44845;51.444;7.460;2023-02-10T06:08:32;101732.34;;;2.95;73.70
59055;BME280;44845;51.444;7.460;2023-02-10T06:10:57;101729.63;;;2.92;73.80
59055;BME280;44845;51.444;7.460;2023-02-10T06:13:23;101734.69;;;2.90;73.87
59055;BME280;44845;51.444;7.460;2023-02-10T06:15:48;101731.13;;;2.88;74.16
59055;BME280;44845;51.444;7.460;2023-02-10T06:18:14;101733.81;;;2.90;74.22
59055;BME280;44845;51.444;7.460;2023-02-10T06:20:39;101739.00;;;2.90;74.17
59055;BME280;44845;51.444;7.460;2023-02-10T06:23:04;101743.19;;;2.88;74.11
59055;BME280;44845;51.444;7.460;2023-02-10T06:25:30;101743.84;;;2.84;74.09
59055;BME280;44845;51.444;7.460;2023-02-10T06:27:55;101748.22;;;2.85;73.92
59055;BME280;44845;51.444;7.460;2023-02-10T06:30:21;101741.19;;;2.82;73.70
59055;BME280;44845;51.444;7.460;2023-02-10T06:32:46;101750.47;;;2.78;73.89
59055;BME280;44845;51.444;7.460;2023-02-10T06:35:12;101745.94;;;2.74;74.09
59055;BME280;44845;51.444;7.460;2023-02-10T06:37:37;101746.72;;;2.73;74.24
59055;BME280;44845;51.444;7.460;2023-02-10T06:40:04;101753.53;;;2.71;74.12
59055;BME280;44845;51.444;7.460;2023-02-10T06:42:29;101753.53;;;2.71;73.95
59055;BME280;44845;51.444;7.460;2023-02-10T06:44:55;101757.09;;;2.73;73.94
59055;BME280;44845;51.444;7.460;2023-02-10T06:47:21;101760.50;;;2.72;73.97
59055;BME280;44845;51.444;7.460;2023-02-10T06:49:46;101770.69;;;2.69;74.40
59055;BME280;44845;51.444;7.460;2023-02-10T06:52:11;101768.19;;;2.70;74.02
59055;BME280;44845;51.444;7.460;2023-02-10T06:54:37;101774.13;;;2.68;73.76
59055;BME280;44845;51.444;7.460;2023-02-10T06:57:02;101776.59;;;2.66;73.66
59055;BME280;44845;51.444;7.460;2023-02-10T06:59:28;101779.84;;;2.62;73.83
59055;BME280;44845;51.444;7.460;2023-02-10T07:01:53;101781.78;;;2.66;74.04
59055;BME280;44845;51.444;7.460;2023-02-10T07:04:26;101778.03;;;2.61;73.89
59055;BME280;44845;51.444;7.460;2023-02-10T07:06:51;101784.03;;;2.60;74.23
59055;BME280;44845;51.444;7.460;2023-02-10T07:09:16;101771.97;;;2.61;74.36
59055;BME280;44845;51.444;7.460;2023-02-10T07:11:42;101771.97;;;2.61;74.17
59055;BME280;44845;51.444;7.460;2023-02-10T07:14:08;101767.69;;;2.61;74.54
59055;BME280;44845;51.444;7.460;2023-02-10T07:16:33;101776.59;;;2.66;74.47
59055;BME280;44845;51.444;7.460;2023-02-10T07:18:59;101766.78;;;2.61;74.52
59055;BME280;44845;51.444;7.460;2023-02-10T07:21:24;101769.78;;;2.68;74.67
59055;BME280;44845;51.444;7.460;2023-02-10T07:23:49;101769.09;;;2.71;74.63
59055;BME280;44845;51.444;7.460;2023-02-10T07:26:15;101768.47;;;2.75;74.90
59055;BME280;44845;51.444;7.460;2023-02-10T07:28:43;101770.22;;;2.76;74.86
59055;BME280;44845;51.444;7.460;2023-02-10T07:31:09;101768.78;;;2.81;74.61
59055;BME280;44845;51.444;7.460;2023-02-10T07:33:34;101765.31;;;2.81;74.67
59055;BME280;44845;51.444;7.460;2023-02-10T07:36:03;101761.97;;;2.84;74.71
59055;BME280;44845;51.444;7.460;2023-02-10T07:38:30;101766.53;;;2.88;74.57
59055;BME280;44845;51.444;7.460;2023-02-10T07:40:56;101768.31;;;2.89;75.03
59055;BME280;44845;51.444;7.460;2023-02-10T07:43:21;101764.03;;;2.89;74.83
59055;BME280;44845;51.444;7.460;2023-02-10T07:45:46;101763.47;;;2.95;74.42
59055;BME280;44845;51.444;7.460;2023-02-10T07:48:12;101763.13;;;2.89;74.89
59055;BME280;44845;51.444;7.460;2023-02-10T07:50:37;101760.97;;;2.97;74.79
59055;BME280;44845;51.444;7.460;2023-02-10T07:53:02;101766.16;;;2.97;74.49
59055;BME280;44845;51.444;7.460;2023-02-10T07:55:28;101780.97;;;2.99;74.67
59055;BME280;44845;51.444;7.460;2023-02-10T07:57:53;101782.75;;;3.00;74.55
59055;BME280;44845;51.444;7.460;2023-02-10T08:00:19;101786.25;;;3.01;74.31
59055;BME280;44845;51.444;7.460;2023-02-10T08:02:44;101781.94;;;3.01;74.51
59055;BME280;44845;51.444;7.460;2023-02-10T08:05:09;101782.13;;;3.04;74.36
59055;BME280;44845;51.444;7.460;2023-02-10T08:07:36;101788.09;;;3.03;74.59
59055;BME280;44845;51.444;7.460;2023-02-10T08:10:02;101782.19;;;3.06;74.53
59055;BME280;44845;51.444;7.460;2023-02-10T08:12:27;101787.78;;;2.97;74.60
59055;BME280;44845;51.444;7.460;2023-02-10T08:14:52;101793.63;;;3.10;74.41
59055;BME280;44845;51.444;7.460;2023-02-10T08:17:18;101797.22;;;3.12;74.58
59055;BME280;44845;51.444;7.460;2023-02-10T08:19:43;101795.59;;;3.14;74.43
59055;BME280;44845;51.444;7.460;2023-02-10T08:22:08;101795.91;;;3.20;74.46
59055;BME280;44845;51.444;7.460;2023-02-10T08:24:34;101797.69;;;3.21;74.58
59055;BME280;44845;51.444;7.460;2023-02-10T08:26:59;101790.53;;;3.17;74.52
59055;BME280;44845;51.444;7.460;2023-02-10T08:29:24;101793.13;;;3.17;74.54
59055;BME280;44845;51.444;7.460;2023-02-10T08:31:51;101784.00;;;3.24;74.73
59055;BME280;44845;51.444;7.460;2023-02-10T08:34:17;101781.66;;;3.29;74.54
59055;BME280;44845;51.444;7.460;2023-02-10T08:36:44;101784.25;;;3.29;74.68
59055;BME280;44845;51.444;7.460;2023-02-10T08:39:10;101799.16;;;3.33;74.78
59055;BME280;44845;51.444;7.460;2023-02-10T08:41:36;101794.81;;;3.32;74.61
59055;BME280;44845;51.444;7.460;2023-02-10T08:44:01;101794.94;;;3.35;74.39
59055;BME280;44845;51.444;7.460;2023-02-10T08:46:27;101794.31;;;3.39;74.36
59055;BME280;44845;51.444;7.460;2023-02-10T08:48:52;101799.03;;;3.46;74.35
59055;BME280;44845;51.444;7.460;2023-02-10T08:51:18;101799.03;;;3.46;74.26
59055;BME280;44845;51.444;7.460;2023-02-10T08:53:43;101800.06;;;3.50;74.43
59055;BME280;44845;51.444;7.460;2023-02-10T08:56:11;101805.91;;;3.46;74.25
59055;BME280;44845;51.444;7.460;2023-02-10T08:58:39;101806.16;;;3.51;74.35
59055;BME280;44845;51.444;7.460;2023-02-10T09:01:17;101802.91;;;3.55;74.54
59055;BME280;44845;51.444;7.460;2023-02-10T09:03:43;101809.88;;;3.56;74.17
59055;BME280;44845;51.444;7.460;2023-02-10T09:06:18;101814.16;;;3.55;74.46
59055;BME280;44845;51.444;7.460;2023-02-10T09:08:45;101821.41;;;3.61;74.12
59055;BME280;44845;51.444;7.460;2023-02-10T09:11:12;101818.94;;;3.64;74.15
59055;BME280;44845;51.444;7.460;2023-02-10T09:13:38;101822.50;;;3.66;74.18
59055;BME280;44845;51.444;7.460;2023-02-10T09:16:03;101812.06;;;3.65;74.07
59055;BME280;44845;51.444;7.460;2023-02-10T09:18:29;101814.72;;;3.66;74.25
59055;BME280;44845;51.444;7.460;2023-02-10T09:20:57;101823.50;;;3.68;74.11
59055;BME280;44845;51.444;7.460;2023-02-10T09:23:22;101833.16;;;3.71;74.10
59055;BME280;44845;51.444;7.460;2023-02-10T09:25:55;101829.00;;;3.75;73.95
59055;BME280;44845;51.444;7.460;2023-02-10T09:28:21;101832.56;;;3.77;74.03
59055;BME280;44845;51.444;7.460;2023-02-10T09:30:46;101838.00;;;3.81;74.18
59055;BME280;44845;51.444;7.460;2023-02-10T09:33:11;101832.66;;;3.78;74.21
59055;BME280;44845;51.444;7.460;2023-02-10T09:35:37;101832.78;;;3.81;74.06
59055;BME280;44845;51.444;7.460;2023-02-10T09:38:02;101824.94;;;3.80;73.91
59055;BME280;44845;51.444;7.460;2023-02-10T09:40:31;101840.69;;;3.83;74.22
59055;BME280;44845;51.444;7.460;2023-02-10T09:46:01;101839.22;;;3.88;73.93
59055;BME280;44845;51.444;7.460;2023-02-10T09:51:56;101841.16;;;3.92;74.22
59055;BME280;44845;51.444;7.460;2023-02-10T09:54:24;101848.28;;;3.97;74.08
59055;BME280;44845;51.444;7.460;2023-02-10T09:56:54;101855.28;;;3.98;74.23
59055;BME280;44845;51.444;7.460;2023-02-10T09:59:21;101851.94;;;4.00;74.12
59055;BME280;44845;51.444;7.460;2023-02-10T10:01:53;101847.78;;;4.04;74.47
59055;BME280;44845;51.444;7.460;2023-02-10T10:04:22;101854.03;;;4.08;74.35
59055;BME280;44845;51.444;7.460;2023-02-10T10:06:50;101850.22;;;4.18;74.50
59055;BME280;44845;51.444;7.460;2023-02-10T10:12:03;101851.63;;;4.29;73.78
59055;BME280;44845;51.444;7.460;2023-02-10T10:14:33;101850.41;;;4.39;73.89
59055;BME280;44845;51.444;7.460;2023-02-10T10:17:27;101837.56;;;4.42;74.08
59055;BME280;44845;51.444;7.460;2023-02-10T10:25:54;101820.72;;;4.52;73.21
59055;BME280;44845;51.444;7.460;2023-02-10T10:31:15;101837.84;;;4.48;72.65
59055;BME280;44845;51.444;7.460;2023-02-10T10:36:14;101840.53;;;4.50;72.99
59055;BME280;44845;51.444;7.460;2023-02-10T10:38:43;101842.16;;;4.48;73.13
59055;BME280;44845;51.444;7.460;2023-02-10T10:41:12;101842.16;;;4.48;72.91
59055;BME280;44845;51.444;7.460;2023-02-10T10:43:45;101844.25;;;4.55;72.93
59055;BME280;44845;51.444;7.460;2023-02-10T10:46:40;101843.44;;;4.56;73.03
59055;BME280;44845;51.444;7.460;2023-02-10T10:49:08;101841.81;;;4.58;72.96
59055;BME280;44845;51.444;7.460;2023-02-10T10:51:34;101833.84;;;4.55;73.00
59055;BME280;44845;51.444;7.460;2023-02-10T10:54:00;101827.16;;;4.60;72.66
59055;BME280;44845;51.444;7.460;2023-02-10T10:58:58;101825.69;;;4.66;72.94
59055;BME280;44845;51.444;7.460;2023-02-10T11:01:35;101821.53;;;4.69;72.72
59055;BME280;44845;51.444;7.460;2023-02-10T11:04:06;101828.56;;;4.72;72.68
59055;BME280;44845;51.444;7.460;2023-02-10T11:06:35;101830.31;;;4.71;72.38
59055;BME280;44845;51.444;7.460;2023-02-10T11:09:03;101832.81;;;4.70;72.61
59055;BME280;44845;51.444;7.460;2023-02-10T11:11:38;101817.38;;;4.73;72.61
59055;BME280;44845;51.444;7.460;2023-02-10T11:14:25;101821.09;;;4.78;72.53
59055;BME280;44845;51.444;7.460;2023-02-10T11:16:54;101814.25;;;4.80;72.07
59055;BME280;44845;51.444;7.460;2023-02-10T11:19:28;101813.44;;;4.81;72.09
59055;BME280;44845;51.444;7.460;2023-02-10T11:21:54;101808.25;;;4.81;72.21
59055;BME280;44845;51.444;7.460;2023-02-10T11:29:20;101797.44;;;4.92;71.69
59055;BME280;44845;51.444;7.460;2023-02-10T11:31:45;101797.75;;;4.98;71.45
59055;BME280;44845;51.444;7.460;2023-02-10T11:34:22;101797.94;;;5.03;71.48
59055;BME280;44845;51.444;7.460;2023-02-10T11:36:48;101792.81;;;5.04;71.61
59055;BME280;44845;51.444;7.460;2023-02-10T11:41:45;101789.75;;;5.13;71.45
59055;BME280;44845;51.444;7.460;2023-02-10T11:44:23;101790.72;;;5.15;71.47
59055;BME280;44845;51.444;7.460;2023-02-10T11:47:02;101786.53;;;5.19;71.06
59055;BME280;44845;51.444;7.460;2023-02-10T11:49:29;101787.44;;;5.20;70.60
59055;BME280;44845;51.444;7.460;2023-02-10T11:52:00;101777.91;;;5.20;70.46
59055;BME280;44845;51.444;7.460;2023-02-10T11:54:27;101785.66;;;5.18;70.75
59055;BME280;44845;51.444;7.460;2023-02-10T11:57:12;101779.69;;;5.21;70.25
59055;BME280;44845;51.444;7.460;2023-02-10T12:10:57;101783.69;;;5.33;70.48
59055;BME280;44845;51.444;7.460;2023-02-10T12:21:08;101767.38;;;5.37;70.02
59055;BME280;44845;51.444;7.460;2023-02-10T12:35:01;101740.94;;;5.47;69.54
59055;BME280;44845;51.444;7.460;2023-02-10T12:37:32;101733.94;;;5.46;70.05
59055;BME280;44845;51.444;7.460;2023-02-10T12:43:32;101721.13;;;5.51;70.09
59055;BME280;44845;51.444;7.460;2023-02-10T12:46:12;101724.75;;;5.55;69.98
59055;BME280;44845;51.444;7.460;2023-02-10T12:51:43;101724.81;;;5.56;69.43
59055;BME280;44845;51.444;7.460;2023-02-10T12:54:16;101719.56;;;5.55;69.43
59055;BME280;44845;51.444;7.460;2023-02-10T12:56:46;101710.25;;;5.60;69.62
59055;BME280;44845;51.444;7.460;2023-02-10T12:59:23;101717.22;;;5.61;69.61
59055;BME280;44845;51.444;7.460;2023-02-10T13:02:03;101724.34;;;5.65;69.60
59055;BME280;44845;51.444;7.460;2023-02-10T13:04:33;101718.31;;;5.66;68.39
59055;BME280;44845;51.444;7.460;2023-02-10T13:10:06;101710.81;;;5.74;69.08
59055;BME280;44845;51.444;7.460;2023-02-10T13:12:36;101709.13;;;5.74;68.88
59055;BME280;44845;51.444;7.460;2023-02-10T13:15:15;101707.59;;;5.80;68.54
59055;BME280;44845;51.444;7.460;2023-02-10T13:17:46;101704.16;;;5.81;68.45
59055;BME280;44845;51.444;7.460;2023-02-10T13:22:54;101690.38;;;5.83;68.39
59055;BME280;44845;51.444;7.460;2023-02-10T13:31:07;101698.00;;;5.79;68.31
59055;BME280;44845;51.444;7.460;2023-02-10T13:34:04;101698.00;;;5.79;68.11
59055;BME280;44845;51.444;7.460;2023-02-10T13:36:34;101683.06;;;5.74;67.24
59055;BME280;44845;51.444;7.460;2023-02-10T13:39:04;101696.28;;;5.79;68.23
59055;BME280;44845;51.444;7.460;2023-02-10T13:41:33;101688.28;;;5.74;67.69
59055;BME280;44845;51.444;7.460;2023-02-10T13:47:13;101679.19;;;5.86;66.38
59055;BME280;44845;51.444;7.460;2023-02-10T13:49:57;101673.16;;;5.87;66.21
59055;BME280;44845;51.444;7.460;2023-02-10T13:52:28;101680.00;;;5.85;66.41
59055;BME280;44845;51.444;7.460;2023-02-10T13:54:58;101681.94;;;5.89;66.05
59055;BME280;44845;51.444;7.460;2023-02-10T13:57:27;101674.94;;;5.88;66.06
59055;BME280;44845;51.444;7.460;2023-02-10T13:59:53;101671.69;;;5.94;65.38
59055;BME280;44845;51.444;7.460;2023-02-10T14:02:29;101663.25;;;6.00;65.92
59055;BME280;44845;51.444;7.460;2023-02-10T14:04:54;101658.16;;;6.03;65.62
59055;BME280;44845;51.444;7.460;2023-02-10T14:12:56;101642.66;;;6.06;64.14
59055;BME280;44845;51.444;7.460;2023-02-10T14:15:27;101643.53;;;6.06;64.49
59055;BME280;44845;51.444;7.460;2023-02-10T14:20:46;101643.63;;;6.08;64.67
59055;BME280;44845;51.444;7.460;2023-02-10T14:23:18;101643.75;;;6.11;64.96
59055;BME280;44845;51.444;7.460;2023-02-10T14:25:46;101641.91;;;6.08;64.15
59055;BME280;44845;51.444;7.460;2023-02-10T14:28:25;101643.81;;;6.13;64.43
59055;BME280;44845;51.444;7.460;2023-02-10T14:30:58;101629.06;;;6.13;64.86
59055;BME280;44845;51.444;7.460;2023-02-10T14:33:29;101639.63;;;6.16;65.11
59055;BME280;44845;51.444;7.460;2023-02-10T14:35:59;101639.63;;;6.16;65.33
59055;BME280;44845;51.444;7.460;2023-02-10T14:38:28;101647.53;;;6.19;64.75
59055;BME280;44845;51.444;7.460;2023-02-10T14:40:55;101645.81;;;6.20;65.24
59055;BME280;44845;51.444;7.460;2023-02-10T14:43:24;101645.06;;;6.23;65.39
59055;BME280;44845;51.444;7.460;2023-02-10T14:45:51;101639.72;;;6.19;65.30
59055;BME280;44845;51.444;7.460;2023-02-10T14:48:18;101641.50;;;6.21;65.47
59055;BME280;44845;51.444;7.460;2023-02-10T14:51:06;101642.59;;;6.26;65.26
59055;BME280;44845;51.444;7.460;2023-02-10T14:53:34;101642.28;;;6.18;65.23
59055;BME280;44845;51.444;7.460;2023-02-10T14:56:03;101634.63;;;6.23;65.17
59055;BME280;44845;51.444;7.460;2023-02-10T14:58:28;101626.00;;;6.24;65.35